SRR902 EKBI-EGLL
Flight info
| Callsign | SRR902 |
|---|---|
| Flight time | 1h 19m |
| Altitude | 32000 |
| Route | MIKRO DCT IPSUB P174 MOXCI DCT BEDUM DCT SPY DCT ABNED L980 LOGAN |
| Aircraft | B77L/H-SDE1E2E3FGHIJ2J3J4J5M1RWXY/LB1D1 |
Departure
| Time | 2026-05-06 09:29 |
|---|---|
| Airport | Billund Airport (EKBI) |
Arrival
| Time | 2026-05-06 10:49 |
|---|---|
| Airport | London Heathrow Airport (EGLL) |
| Time | Latitude | Longitude | Altitude | Speed | Heading |
|---|---|---|---|---|---|
| 2026-05-06 09:15 | 55.73796 | 9.13819 | 230 ft | 0 kts | 10° |
| 2026-05-06 09:25 | 55.73797 | 9.13819 | 225 ft | 2 kts | 10° |
| 2026-05-06 09:25 | 55.73818 | 9.13801 | 227 ft | 4 kts | 315° |
| 2026-05-06 09:25 | 55.73830 | 9.13733 | 229 ft | 7 kts | 264° |
| 2026-05-06 09:26 | 55.73826 | 9.13646 | 224 ft | 7 kts | 268° |
| 2026-05-06 09:26 | 55.73859 | 9.13586 | 229 ft | 8 kts | 353° |
| 2026-05-06 09:26 | 55.73918 | 9.13592 | 229 ft | 9 kts | 9° |
| 2026-05-06 09:26 | 55.73974 | 9.13625 | 227 ft | 9 kts | 40° |
| 2026-05-06 09:27 | 55.73988 | 9.13690 | 223 ft | 9 kts | 83° |
| 2026-05-06 09:27 | 55.73991 | 9.13738 | 223 ft | 0 kts | 85° |
| 2026-05-06 09:28 | 55.73991 | 9.13739 | 223 ft | 0 kts | 85° |
| 2026-05-06 09:28 | 55.73996 | 9.13847 | 226 ft | 39 kts | 85° |
| 2026-05-06 09:28 | 55.74026 | 9.14795 | 236 ft | 112 kts | 86° |
| 2026-05-06 09:29 | 55.74080 | 9.16560 | 250 ft | 170 kts | 85° |
| 2026-05-06 09:29 | 55.74137 | 9.18760 | 714 ft | 180 kts | 85° |
| 2026-05-06 09:29 | 55.74189 | 9.21009 | 1470 ft | 180 kts | 85° |
| 2026-05-06 09:29 | 55.74258 | 9.23273 | 2111 ft | 198 kts | 85° |
| 2026-05-06 09:30 | 55.74337 | 9.25926 | 2411 ft | 231 kts | 85° |
| 2026-05-06 09:30 | 55.74147 | 9.28863 | 3008 ft | 247 kts | 111° |
| 2026-05-06 09:30 | 55.73088 | 9.31341 | 3958 ft | 260 kts | 141° |
| 2026-05-06 09:30 | 55.71430 | 9.32619 | 4904 ft | 270 kts | 171° |
| 2026-05-06 09:31 | 55.69553 | 9.32374 | 5912 ft | 274 kts | 199° |
| 2026-05-06 09:31 | 55.67955 | 9.30574 | 6903 ft | 277 kts | 230° |
| 2026-05-06 09:31 | 55.66994 | 9.27661 | 7831 ft | 274 kts | 248° |
| 2026-05-06 09:31 | 55.66282 | 9.24520 | 8847 ft | 274 kts | 250° |
| 2026-05-06 09:32 | 55.65598 | 9.21363 | 9930 ft | 274 kts | 250° |
| 2026-05-06 09:32 | 55.64914 | 9.18193 | 10655 ft | 285 kts | 250° |
| 2026-05-06 09:32 | 55.64166 | 9.14748 | 10905 ft | 313 kts | 249° |
| 2026-05-06 09:32 | 55.63339 | 9.10978 | 11145 ft | 340 kts | 249° |
| 2026-05-06 09:33 | 55.62443 | 9.06950 | 11622 ft | 358 kts | 249° |
| 2026-05-06 09:33 | 55.61509 | 9.02790 | 12442 ft | 367 kts | 248° |
| 2026-05-06 09:33 | 55.60561 | 8.98605 | 13349 ft | 372 kts | 248° |
| 2026-05-06 09:33 | 55.59591 | 8.94337 | 14273 ft | 375 kts | 248° |
| 2026-05-06 09:34 | 55.58611 | 8.90048 | 15219 ft | 376 kts | 248° |
| 2026-05-06 09:34 | 55.57624 | 8.85744 | 16143 ft | 379 kts | 248° |
| 2026-05-06 09:34 | 55.56625 | 8.81399 | 16982 ft | 383 kts | 248° |
| 2026-05-06 09:34 | 55.55629 | 8.77071 | 17810 ft | 387 kts | 248° |
| 2026-05-06 09:35 | 55.54606 | 8.72637 | 18617 ft | 390 kts | 248° |
| 2026-05-06 09:35 | 55.53577 | 8.68182 | 19362 ft | 393 kts | 248° |
| 2026-05-06 09:35 | 55.52535 | 8.63688 | 20100 ft | 395 kts | 247° |
| 2026-05-06 09:35 | 55.51498 | 8.59220 | 20811 ft | 399 kts | 247° |
| 2026-05-06 09:36 | 55.50438 | 8.54661 | 21520 ft | 402 kts | 246° |
| 2026-05-06 09:36 | 55.49367 | 8.50064 | 22242 ft | 405 kts | 246° |
| 2026-05-06 09:36 | 55.48300 | 8.45497 | 22850 ft | 409 kts | 246° |
| 2026-05-06 09:36 | 55.47207 | 8.40831 | 23474 ft | 414 kts | 246° |
| 2026-05-06 09:37 | 55.46102 | 8.36116 | 24047 ft | 417 kts | 246° |
| 2026-05-06 09:37 | 55.44991 | 8.31380 | 24662 ft | 419 kts | 246° |
| 2026-05-06 09:37 | 55.43870 | 8.26625 | 25250 ft | 421 kts | 245° |
| 2026-05-06 09:37 | 55.42623 | 8.21948 | 25690 ft | 421 kts | 236° |
| 2026-05-06 09:38 | 55.40713 | 8.18093 | 26065 ft | 426 kts | 220° |
| 2026-05-06 09:38 | 55.38258 | 8.15113 | 26660 ft | 428 kts | 209° |
| 2026-05-06 09:38 | 55.35493 | 8.13181 | 27230 ft | 430 kts | 198° |
| 2026-05-06 09:38 | 55.32598 | 8.11749 | 27699 ft | 434 kts | 198° |
| 2026-05-06 09:39 | 55.29670 | 8.10338 | 28171 ft | 438 kts | 198° |
| 2026-05-06 09:39 | 55.26722 | 8.08902 | 28702 ft | 440 kts | 198° |
| 2026-05-06 09:39 | 55.23804 | 8.07451 | 29154 ft | 442 kts | 198° |
| 2026-05-06 09:39 | 55.20827 | 8.05945 | 29577 ft | 445 kts | 198° |
| 2026-05-06 09:40 | 55.17835 | 8.04416 | 30012 ft | 447 kts | 198° |
| 2026-05-06 09:40 | 55.14858 | 8.02889 | 30529 ft | 445 kts | 198° |
| 2026-05-06 09:40 | 55.08972 | 7.99875 | 31602 ft | 440 kts | 198° |
| 2026-05-06 09:41 | 55.06025 | 7.98368 | 32071 ft | 440 kts | 198° |
| 2026-05-06 09:41 | 55.03091 | 7.96873 | 32516 ft | 439 kts | 198° |
| 2026-05-06 09:41 | 55.00151 | 7.95405 | 32953 ft | 438 kts | 197° |
| 2026-05-06 09:41 | 54.98172 | 7.94606 | 33184 ft | 440 kts | 193° |
| 2026-05-06 09:42 | 54.94169 | 7.93322 | 33658 ft | 441 kts | 192° |
| 2026-05-06 09:42 | 54.91147 | 7.92344 | 34093 ft | 440 kts | 193° |
| 2026-05-06 09:42 | 54.89147 | 7.91690 | 34313 ft | 439 kts | 193° |
| 2026-05-06 09:42 | 54.86129 | 7.90694 | 34572 ft | 441 kts | 193° |
| 2026-05-06 09:43 | 54.83103 | 7.89691 | 34816 ft | 443 kts | 193° |
| 2026-05-06 09:43 | 54.80071 | 7.88686 | 35070 ft | 444 kts | 193° |
| 2026-05-06 09:43 | 54.77029 | 7.87680 | 35355 ft | 445 kts | 193° |
| 2026-05-06 09:43 | 54.73980 | 7.86673 | 35584 ft | 446 kts | 192° |
| 2026-05-06 09:44 | 54.70954 | 7.85676 | 35756 ft | 449 kts | 192° |
| 2026-05-06 09:44 | 54.67863 | 7.84660 | 35871 ft | 453 kts | 192° |
| 2026-05-06 09:44 | 54.61674 | 7.82619 | 35940 ft | 453 kts | 192° |
| 2026-05-06 09:45 | 54.55501 | 7.80586 | 35936 ft | 448 kts | 192° |
| 2026-05-06 09:45 | 54.49417 | 7.78587 | 35933 ft | 446 kts | 192° |
| 2026-05-06 09:46 | 54.43315 | 7.76589 | 35941 ft | 446 kts | 192° |
| 2026-05-06 09:46 | 54.37232 | 7.74604 | 35932 ft | 446 kts | 192° |
| 2026-05-06 09:47 | 54.31120 | 7.72615 | 35933 ft | 446 kts | 192° |
| 2026-05-06 09:47 | 54.25032 | 7.70639 | 35919 ft | 447 kts | 192° |
| 2026-05-06 09:48 | 54.18890 | 7.68652 | 35927 ft | 448 kts | 191° |
| 2026-05-06 09:48 | 54.12793 | 7.66675 | 35927 ft | 449 kts | 192° |
| 2026-05-06 09:49 | 54.06633 | 7.64671 | 35915 ft | 449 kts | 192° |
| 2026-05-06 09:49 | 54.00508 | 7.62685 | 35916 ft | 450 kts | 191° |
| 2026-05-06 09:50 | 53.94461 | 7.60043 | 35903 ft | 448 kts | 204° |
| 2026-05-06 09:50 | 53.89189 | 7.54366 | 35900 ft | 450 kts | 221° |
| 2026-05-06 09:51 | 53.84860 | 7.46720 | 35903 ft | 451 kts | 225° |
| 2026-05-06 09:51 | 53.80598 | 7.38970 | 35909 ft | 452 kts | 225° |
| 2026-05-06 09:52 | 53.76268 | 7.31219 | 35904 ft | 453 kts | 225° |
| 2026-05-06 09:52 | 53.71925 | 7.23535 | 35909 ft | 454 kts | 225° |
| 2026-05-06 09:53 | 53.67525 | 7.15788 | 35896 ft | 456 kts | 225° |
| 2026-05-06 09:53 | 53.63151 | 7.08110 | 35893 ft | 456 kts | 225° |
| 2026-05-06 09:54 | 53.58736 | 7.00382 | 35899 ft | 457 kts | 225° |
| 2026-05-06 09:54 | 53.54315 | 6.92667 | 35899 ft | 457 kts | 225° |
| 2026-05-06 09:55 | 53.49916 | 6.85015 | 35899 ft | 457 kts | 225° |
| 2026-05-06 09:55 | 53.45484 | 6.77330 | 35902 ft | 458 kts | 225° |
| 2026-05-06 09:56 | 53.41035 | 6.69640 | 35894 ft | 459 kts | 225° |
| 2026-05-06 09:56 | 53.36608 | 6.62010 | 35889 ft | 458 kts | 225° |
| 2026-05-06 09:57 | 53.32484 | 6.53950 | 35896 ft | 458 kts | 232° |
| 2026-05-06 09:57 | 53.28664 | 6.45396 | 35897 ft | 457 kts | 232° |
| 2026-05-06 09:58 | 53.24867 | 6.36954 | 35890 ft | 456 kts | 232° |
| 2026-05-06 09:58 | 53.21026 | 6.28486 | 35890 ft | 456 kts | 232° |
| 2026-05-06 09:59 | 53.17209 | 6.20118 | 35888 ft | 455 kts | 232° |
| 2026-05-06 09:59 | 53.13358 | 6.11704 | 35915 ft | 455 kts | 231° |
| 2026-05-06 10:00 | 53.09522 | 6.03351 | 35888 ft | 456 kts | 231° |
| 2026-05-06 10:00 | 53.05648 | 5.94941 | 35897 ft | 457 kts | 231° |
| 2026-05-06 10:01 | 53.01764 | 5.86538 | 35908 ft | 458 kts | 231° |
| 2026-05-06 10:01 | 52.97881 | 5.78165 | 35880 ft | 459 kts | 231° |
| 2026-05-06 10:02 | 52.93985 | 5.69791 | 35876 ft | 460 kts | 231° |
| 2026-05-06 10:02 | 52.90057 | 5.61376 | 35873 ft | 461 kts | 231° |
| 2026-05-06 10:03 | 52.86122 | 5.52974 | 35874 ft | 461 kts | 231° |
| 2026-05-06 10:03 | 52.82201 | 5.44630 | 35878 ft | 461 kts | 231° |
| 2026-05-06 10:04 | 52.78249 | 5.36247 | 35886 ft | 461 kts | 231° |
| 2026-05-06 10:04 | 52.74323 | 5.27948 | 35887 ft | 460 kts | 231° |
| 2026-05-06 10:05 | 52.70362 | 5.19601 | 35888 ft | 461 kts | 231° |
| 2026-05-06 10:05 | 52.66419 | 5.11318 | 35886 ft | 460 kts | 231° |
| 2026-05-06 10:06 | 52.62471 | 5.03053 | 35881 ft | 460 kts | 231° |
| 2026-05-06 10:06 | 52.58495 | 4.94753 | 35895 ft | 461 kts | 231° |
| 2026-05-06 10:07 | 52.54539 | 4.86514 | 35884 ft | 462 kts | 232° |
| 2026-05-06 10:07 | 52.50903 | 4.77778 | 35890 ft | 462 kts | 236° |
| 2026-05-06 10:08 | 52.47407 | 4.68944 | 35886 ft | 463 kts | 236° |
| 2026-05-06 10:08 | 52.43878 | 4.60086 | 35877 ft | 463 kts | 236° |
| 2026-05-06 10:09 | 52.40349 | 4.51299 | 35889 ft | 463 kts | 236° |
| 2026-05-06 10:09 | 52.36789 | 4.42478 | 35891 ft | 463 kts | 236° |
| 2026-05-06 10:10 | 52.33244 | 4.33726 | 35896 ft | 464 kts | 236° |
| 2026-05-06 10:10 | 52.29674 | 4.24939 | 35889 ft | 464 kts | 236° |
| 2026-05-06 10:11 | 52.26094 | 4.16157 | 35894 ft | 463 kts | 236° |
| 2026-05-06 10:11 | 52.22528 | 4.07438 | 35907 ft | 463 kts | 235° |
| 2026-05-06 10:12 | 52.18934 | 3.98682 | 35893 ft | 464 kts | 235° |
| 2026-05-06 10:12 | 52.15352 | 3.89985 | 35913 ft | 464 kts | 236° |
| 2026-05-06 10:13 | 52.11754 | 3.81280 | 35904 ft | 463 kts | 235° |
| 2026-05-06 10:13 | 52.08149 | 3.72585 | 35896 ft | 462 kts | 235° |
| 2026-05-06 10:14 | 52.04541 | 3.63913 | 35890 ft | 462 kts | 235° |
| 2026-05-06 10:14 | 52.00956 | 3.55325 | 35892 ft | 461 kts | 235° |
| 2026-05-06 10:15 | 51.97364 | 3.46748 | 35904 ft | 461 kts | 235° |
| 2026-05-06 10:15 | 51.93736 | 3.38115 | 35894 ft | 462 kts | 235° |
| 2026-05-06 10:16 | 51.90129 | 3.29554 | 35909 ft | 463 kts | 235° |
| 2026-05-06 10:16 | 51.86628 | 3.20799 | 35902 ft | 464 kts | 243° |
| 2026-05-06 10:17 | 51.84499 | 3.10931 | 35923 ft | 466 kts | 257° |
| 2026-05-06 10:17 | 51.83731 | 3.00560 | 35920 ft | 467 kts | 264° |
| 2026-05-06 10:18 | 51.83132 | 2.90075 | 35948 ft | 468 kts | 263° |
| 2026-05-06 10:18 | 51.82462 | 2.79580 | 35925 ft | 468 kts | 263° |
| 2026-05-06 10:19 | 51.81763 | 2.69114 | 35941 ft | 468 kts | 263° |
| 2026-05-06 10:19 | 51.81054 | 2.58706 | 35929 ft | 467 kts | 262° |
| 2026-05-06 10:20 | 51.80692 | 2.53472 | 35782 ft | 468 kts | 262° |
| 2026-05-06 10:20 | 51.80325 | 2.48208 | 35150 ft | 470 kts | 262° |
| 2026-05-06 10:20 | 51.79958 | 2.42965 | 34523 ft | 467 kts | 263° |
| 2026-05-06 10:20 | 51.79597 | 2.37824 | 33928 ft | 465 kts | 262° |
| 2026-05-06 10:21 | 51.79231 | 2.32637 | 33172 ft | 463 kts | 262° |
| 2026-05-06 10:21 | 51.78865 | 2.27477 | 32416 ft | 461 kts | 262° |
| 2026-05-06 10:21 | 51.78495 | 2.22312 | 31678 ft | 460 kts | 262° |
| 2026-05-06 10:21 | 51.78162 | 2.17231 | 30970 ft | 460 kts | 263° |
| 2026-05-06 10:22 | 51.77861 | 2.12098 | 30277 ft | 453 kts | 263° |
| 2026-05-06 10:22 | 51.77579 | 2.07077 | 29480 ft | 441 kts | 263° |
| 2026-05-06 10:22 | 51.77305 | 2.02244 | 28691 ft | 432 kts | 263° |
| 2026-05-06 10:22 | 51.77022 | 1.97392 | 27944 ft | 432 kts | 263° |
| 2026-05-06 10:23 | 51.76734 | 1.92552 | 27225 ft | 433 kts | 263° |
| 2026-05-06 10:23 | 51.76441 | 1.87715 | 26500 ft | 433 kts | 263° |
| 2026-05-06 10:23 | 51.76152 | 1.82967 | 25804 ft | 420 kts | 263° |
| 2026-05-06 10:23 | 51.75870 | 1.78361 | 25131 ft | 405 kts | 263° |
| 2026-05-06 10:24 | 51.75591 | 1.73847 | 24510 ft | 397 kts | 263° |
| 2026-05-06 10:24 | 51.75321 | 1.69495 | 23892 ft | 393 kts | 263° |
| 2026-05-06 10:24 | 51.75045 | 1.65086 | 23281 ft | 395 kts | 263° |
| 2026-05-06 10:24 | 51.74767 | 1.60673 | 22637 ft | 396 kts | 263° |
| 2026-05-06 10:25 | 51.74484 | 1.56256 | 21996 ft | 395 kts | 263° |
| 2026-05-06 10:25 | 51.74200 | 1.51869 | 21345 ft | 386 kts | 263° |
| 2026-05-06 10:25 | 51.73924 | 1.47627 | 20711 ft | 375 kts | 263° |
| 2026-05-06 10:25 | 51.73652 | 1.43453 | 20112 ft | 374 kts | 263° |
| 2026-05-06 10:26 | 51.73377 | 1.39265 | 19526 ft | 376 kts | 264° |
| 2026-05-06 10:26 | 51.73104 | 1.35129 | 18996 ft | 371 kts | 264° |
| 2026-05-06 10:26 | 51.72833 | 1.31051 | 18497 ft | 360 kts | 264° |
| 2026-05-06 10:26 | 51.72568 | 1.27063 | 17980 ft | 359 kts | 264° |
| 2026-05-06 10:27 | 51.72298 | 1.23023 | 17474 ft | 364 kts | 264° |
| 2026-05-06 10:27 | 51.72024 | 1.18953 | 17005 ft | 363 kts | 264° |
| 2026-05-06 10:27 | 51.71751 | 1.14917 | 16620 ft | 359 kts | 264° |
| 2026-05-06 10:27 | 51.71480 | 1.10926 | 16231 ft | 356 kts | 264° |
| 2026-05-06 10:28 | 51.71215 | 1.07031 | 15845 ft | 352 kts | 264° |
| 2026-05-06 10:28 | 51.70947 | 1.03113 | 15465 ft | 350 kts | 264° |
| 2026-05-06 10:28 | 51.70678 | 0.99216 | 15096 ft | 347 kts | 264° |
| 2026-05-06 10:28 | 51.70410 | 0.95360 | 14723 ft | 345 kts | 264° |
| 2026-05-06 10:29 | 51.70143 | 0.91519 | 14355 ft | 343 kts | 264° |
| 2026-05-06 10:29 | 51.69877 | 0.87688 | 14024 ft | 342 kts | 264° |
| 2026-05-06 10:29 | 51.69614 | 0.83919 | 13980 ft | 342 kts | 264° |
| 2026-05-06 10:29 | 51.69346 | 0.80093 | 13859 ft | 346 kts | 264° |
| 2026-05-06 10:30 | 51.69074 | 0.76204 | 13599 ft | 347 kts | 264° |
| 2026-05-06 10:30 | 51.68891 | 0.73649 | 13401 ft | 338 kts | 264° |
| 2026-05-06 10:30 | 51.68618 | 0.70019 | 13065 ft | 313 kts | 264° |
| 2026-05-06 10:30 | 51.68275 | 0.65605 | 12684 ft | 293 kts | 264° |
| 2026-05-06 10:31 | 51.68104 | 0.63381 | 12562 ft | 295 kts | 264° |
| 2026-05-06 10:31 | 51.67853 | 0.60135 | 12365 ft | 295 kts | 264° |
| 2026-05-06 10:31 | 51.67506 | 0.55770 | 12101 ft | 295 kts | 264° |
| 2026-05-06 10:31 | 51.67325 | 0.53558 | 11963 ft | 294 kts | 264° |
| 2026-05-06 10:32 | 51.67057 | 0.50327 | 11758 ft | 294 kts | 264° |
| 2026-05-06 10:32 | 51.66785 | 0.47053 | 11548 ft | 293 kts | 264° |
| 2026-05-06 10:32 | 51.66505 | 0.43796 | 11350 ft | 292 kts | 264° |
| 2026-05-06 10:32 | 51.66227 | 0.40549 | 11155 ft | 292 kts | 264° |
| 2026-05-06 10:33 | 51.65948 | 0.37349 | 10947 ft | 291 kts | 264° |
| 2026-05-06 10:33 | 51.65659 | 0.34125 | 10764 ft | 289 kts | 264° |
| 2026-05-06 10:33 | 51.65357 | 0.30922 | 10570 ft | 288 kts | 264° |
| 2026-05-06 10:33 | 51.65049 | 0.27736 | 10369 ft | 287 kts | 263° |
| 2026-05-06 10:34 | 51.64753 | 0.24570 | 10175 ft | 285 kts | 264° |
| 2026-05-06 10:34 | 51.64463 | 0.21455 | 9982 ft | 284 kts | 264° |
| 2026-05-06 10:34 | 51.64175 | 0.18301 | 9791 ft | 284 kts | 264° |
| 2026-05-06 10:34 | 51.63877 | 0.15146 | 9557 ft | 283 kts | 264° |
| 2026-05-06 10:35 | 51.63576 | 0.12006 | 9358 ft | 283 kts | 264° |
| 2026-05-06 10:35 | 51.63273 | 0.08920 | 9129 ft | 282 kts | 264° |
| 2026-05-06 10:35 | 51.62960 | 0.05799 | 8933 ft | 281 kts | 263° |
| 2026-05-06 10:35 | 51.62651 | 0.02689 | 8719 ft | 280 kts | 264° |
| 2026-05-06 10:36 | 51.62341 | -0.00414 | 8526 ft | 280 kts | 263° |
| 2026-05-06 10:36 | 51.62042 | -0.03473 | 8310 ft | 278 kts | 264° |
| 2026-05-06 10:36 | 51.61739 | -0.06540 | 8131 ft | 276 kts | 264° |
| 2026-05-06 10:36 | 51.61432 | -0.09579 | 8055 ft | 271 kts | 264° |
| 2026-05-06 10:37 | 51.61124 | -0.12571 | 8023 ft | 271 kts | 264° |
| 2026-05-06 10:37 | 51.60818 | -0.15528 | 8029 ft | 273 kts | 264° |
| 2026-05-06 10:37 | 51.60507 | -0.18566 | 8025 ft | 275 kts | 264° |
| 2026-05-06 10:37 | 51.60195 | -0.21614 | 7934 ft | 276 kts | 264° |
| 2026-05-06 10:38 | 51.59883 | -0.24666 | 7792 ft | 275 kts | 264° |
| 2026-05-06 10:38 | 51.59574 | -0.27676 | 7635 ft | 273 kts | 264° |
| 2026-05-06 10:38 | 51.59260 | -0.30682 | 7507 ft | 271 kts | 264° |
| 2026-05-06 10:38 | 51.58948 | -0.33664 | 7376 ft | 269 kts | 264° |
| 2026-05-06 10:39 | 51.58636 | -0.36601 | 7261 ft | 268 kts | 264° |
| 2026-05-06 10:39 | 51.58316 | -0.39555 | 7137 ft | 268 kts | 264° |
| 2026-05-06 10:39 | 51.57987 | -0.42514 | 7069 ft | 268 kts | 263° |
| 2026-05-06 10:39 | 51.57633 | -0.45481 | 7023 ft | 270 kts | 263° |
| 2026-05-06 10:40 | 51.57276 | -0.48433 | 7007 ft | 270 kts | 263° |
| 2026-05-06 10:40 | 51.56921 | -0.51339 | 6966 ft | 259 kts | 263° |
| 2026-05-06 10:40 | 51.56572 | -0.54140 | 6773 ft | 251 kts | 263° |
| 2026-05-06 10:40 | 51.56228 | -0.56846 | 6570 ft | 242 kts | 263° |
| 2026-05-06 10:41 | 51.55944 | -0.59456 | 6388 ft | 233 kts | 269° |
| 2026-05-06 10:41 | 51.55803 | -0.61997 | 6233 ft | 229 kts | 270° |
| 2026-05-06 10:41 | 51.55682 | -0.64554 | 6063 ft | 229 kts | 270° |
| 2026-05-06 10:41 | 51.55566 | -0.67102 | 5901 ft | 229 kts | 270° |
| 2026-05-06 10:42 | 51.55450 | -0.69655 | 5750 ft | 229 kts | 271° |
| 2026-05-06 10:42 | 51.55332 | -0.72180 | 5603 ft | 229 kts | 271° |
| 2026-05-06 10:42 | 51.55211 | -0.74740 | 5444 ft | 229 kts | 271° |
| 2026-05-06 10:42 | 51.55086 | -0.77261 | 5282 ft | 220 kts | 271° |
| 2026-05-06 10:43 | 51.54913 | -0.79628 | 5109 ft | 209 kts | 258° |
| 2026-05-06 10:43 | 51.54123 | -0.81522 | 5021 ft | 207 kts | 219° |
| 2026-05-06 10:43 | 51.52777 | -0.82296 | 4911 ft | 214 kts | 180° |
| 2026-05-06 10:44 | 51.50336 | -0.80008 | 4524 ft | 209 kts | 122° |
| 2026-05-06 10:44 | 51.49483 | -0.78130 | 4180 ft | 203 kts | 121° |
| 2026-05-06 10:44 | 51.48688 | -0.76340 | 3755 ft | 193 kts | 121° |
| 2026-05-06 10:44 | 51.47979 | -0.74567 | 3303 ft | 182 kts | 105° |
| 2026-05-06 10:45 | 51.47806 | -0.72697 | 3107 ft | 165 kts | 90° |
| 2026-05-06 10:45 | 51.47718 | -0.70843 | 2898 ft | 167 kts | 88° |
| 2026-05-06 10:45 | 51.47686 | -0.68993 | 2665 ft | 165 kts | 86° |
| 2026-05-06 10:45 | 51.47682 | -0.67167 | 2424 ft | 162 kts | 84° |
| 2026-05-06 10:46 | 51.47688 | -0.65376 | 2221 ft | 163 kts | 85° |
| 2026-05-06 10:46 | 51.47694 | -0.63550 | 1986 ft | 162 kts | 85° |
| 2026-05-06 10:46 | 51.47701 | -0.61749 | 1777 ft | 163 kts | 86° |
| 2026-05-06 10:46 | 51.47707 | -0.59933 | 1527 ft | 161 kts | 86° |
| 2026-05-06 10:47 | 51.47713 | -0.58188 | 1336 ft | 152 kts | 84° |
| 2026-05-06 10:47 | 51.47720 | -0.56549 | 1116 ft | 143 kts | 85° |
| 2026-05-06 10:47 | 51.47724 | -0.54970 | 918 ft | 140 kts | 84° |
| 2026-05-06 10:47 | 51.47731 | -0.53380 | 722 ft | 145 kts | 85° |
| 2026-05-06 10:48 | 51.47740 | -0.51763 | 574 ft | 145 kts | 84° |
| 2026-05-06 10:48 | 51.47747 | -0.50144 | 334 ft | 146 kts | 84° |
| 2026-05-06 10:48 | 51.47753 | -0.48569 | 157 ft | 139 kts | 84° |
| 2026-05-06 10:48 | 51.47762 | -0.47049 | 93 ft | 126 kts | 86° |
| 2026-05-06 10:49 | 51.47772 | -0.45909 | 92 ft | 75 kts | 88° |
| 2026-05-06 10:49 | 51.47767 | -0.45353 | 93 ft | 32 kts | 91° |
| 2026-05-06 10:49 | 51.47724 | -0.45192 | 94 ft | 4 kts | 147° |
| 2026-05-06 10:49 | 51.47693 | -0.45178 | 94 ft | 5 kts | 172° |
| 2026-05-06 10:50 | 51.47658 | -0.45175 | 94 ft | 0 kts | 177° |
| 2026-05-06 10:50 | 51.47650 | -0.45174 | 93 ft | 2 kts | 177° |
| 2026-05-06 10:50 | 51.47632 | -0.45171 | 95 ft | 5 kts | 172° |
| 2026-05-06 10:51 | 51.47600 | -0.45124 | 94 ft | 7 kts | 114° |
| 2026-05-06 10:51 | 51.47598 | -0.45042 | 92 ft | 7 kts | 89° |
| 2026-05-06 10:51 | 51.47599 | -0.44941 | 91 ft | 11 kts | 89° |
| 2026-05-06 10:51 | 51.47600 | -0.44817 | 91 ft | 11 kts | 89° |
| 2026-05-06 10:52 | 51.47601 | -0.44693 | 91 ft | 11 kts | 90° |
| 2026-05-06 10:52 | 51.47601 | -0.44568 | 91 ft | 11 kts | 90° |
| 2026-05-06 10:52 | 51.47601 | -0.44444 | 91 ft | 11 kts | 91° |
| 2026-05-06 10:52 | 51.47598 | -0.44319 | 91 ft | 11 kts | 96° |
| 2026-05-06 10:53 | 51.47592 | -0.44195 | 92 ft | 11 kts | 92° |
| 2026-05-06 10:53 | 51.47570 | -0.44080 | 94 ft | 11 kts | 139° |
| 2026-05-06 10:53 | 51.47495 | -0.44061 | 95 ft | 11 kts | 178° |
| 2026-05-06 10:53 | 51.47416 | -0.44060 | 94 ft | 11 kts | 180° |
| 2026-05-06 10:54 | 51.47338 | -0.44058 | 92 ft | 11 kts | 179° |
| 2026-05-06 10:54 | 51.47259 | -0.44057 | 91 ft | 11 kts | 179° |
| 2026-05-06 10:54 | 51.47180 | -0.44056 | 91 ft | 11 kts | 180° |
| 2026-05-06 10:54 | 51.47101 | -0.44057 | 91 ft | 11 kts | 180° |
| 2026-05-06 10:55 | 51.47021 | -0.44057 | 93 ft | 11 kts | 180° |
| 2026-05-06 10:55 | 51.46941 | -0.44056 | 94 ft | 11 kts | 179° |
| 2026-05-06 10:55 | 51.46878 | -0.44055 | 94 ft | 6 kts | 179° |
| 2026-05-06 10:55 | 51.46857 | -0.44054 | 94 ft | 0 kts | 179° |
| 2026-05-06 10:56 | 51.46853 | -0.44054 | 94 ft | 5 kts | 180° |
| 2026-05-06 10:57 | 51.46784 | -0.44054 | 94 ft | 11 kts | 179° |
| 2026-05-06 10:57 | 51.46711 | -0.44053 | 94 ft | 11 kts | 180° |
| 2026-05-06 10:57 | 51.46646 | -0.44053 | 94 ft | 0 kts | 180° |
| 2026-05-06 10:57 | 51.46644 | -0.44053 | 94 ft | 3 kts | 180° |
| 2026-05-06 10:58 | 51.46639 | -0.44053 | 94 ft | 0 kts | 180° |
| 2026-05-06 10:58 | 51.46627 | -0.44053 | 94 ft | 9 kts | 180° |
| 2026-05-06 10:58 | 51.46534 | -0.44052 | 94 ft | 14 kts | 180° |
| 2026-05-06 10:59 | 51.46439 | -0.44082 | 95 ft | 14 kts | 206° |
| 2026-05-06 10:59 | 51.46379 | -0.44137 | 94 ft | 9 kts | 210° |
| 2026-05-06 10:59 | 51.46332 | -0.44209 | 94 ft | 10 kts | 248° |
| 2026-05-06 10:59 | 51.46326 | -0.44315 | 94 ft | 10 kts | 269° |
| 2026-05-06 11:00 | 51.46326 | -0.44425 | 92 ft | 10 kts | 270° |
| 2026-05-06 11:00 | 51.46326 | -0.44535 | 94 ft | 10 kts | 270° |
| 2026-05-06 11:00 | 51.46321 | -0.44645 | 93 ft | 10 kts | 264° |
| 2026-05-06 11:00 | 51.46318 | -0.44757 | 94 ft | 10 kts | 268° |
| 2026-05-06 11:01 | 51.46318 | -0.44870 | 94 ft | 10 kts | 270° |
| 2026-05-06 11:01 | 51.46318 | -0.44983 | 94 ft | 10 kts | 270° |
| 2026-05-06 11:01 | 51.46318 | -0.45096 | 94 ft | 10 kts | 270° |
| 2026-05-06 11:01 | 51.46317 | -0.45210 | 94 ft | 10 kts | 269° |
| 2026-05-06 11:02 | 51.46316 | -0.45325 | 94 ft | 10 kts | 269° |
| 2026-05-06 11:02 | 51.46316 | -0.45440 | 94 ft | 10 kts | 270° |
| 2026-05-06 11:02 | 51.46316 | -0.45556 | 94 ft | 10 kts | 272° |
| 2026-05-06 11:02 | 51.46321 | -0.45672 | 92 ft | 10 kts | 274° |
| 2026-05-06 11:03 | 51.46323 | -0.45787 | 91 ft | 10 kts | 270° |
| 2026-05-06 11:03 | 51.46322 | -0.45904 | 91 ft | 11 kts | 270° |
| 2026-05-06 11:03 | 51.46322 | -0.46022 | 91 ft | 11 kts | 270° |
| 2026-05-06 11:03 | 51.46322 | -0.46141 | 91 ft | 11 kts | 270° |
| 2026-05-06 11:04 | 51.46322 | -0.46261 | 91 ft | 11 kts | 269° |
| 2026-05-06 11:04 | 51.46321 | -0.46380 | 91 ft | 11 kts | 270° |
| 2026-05-06 11:04 | 51.46321 | -0.46501 | 91 ft | 11 kts | 270° |
| 2026-05-06 11:04 | 51.46321 | -0.46623 | 91 ft | 11 kts | 270° |
| 2026-05-06 11:05 | 51.46321 | -0.46746 | 91 ft | 11 kts | 270° |
| 2026-05-06 11:05 | 51.46322 | -0.46867 | 91 ft | 11 kts | 270° |
| 2026-05-06 11:05 | 51.46321 | -0.46990 | 91 ft | 11 kts | 270° |
| 2026-05-06 11:05 | 51.46321 | -0.47114 | 93 ft | 11 kts | 270° |
| 2026-05-06 11:06 | 51.46320 | -0.47207 | 93 ft | 7 kts | 264° |
| 2026-05-06 11:06 | 51.46288 | -0.47261 | 95 ft | 7 kts | 193° |
| 2026-05-06 11:06 | 51.46238 | -0.47263 | 94 ft | 7 kts | 180° |
| 2026-05-06 11:06 | 51.46185 | -0.47263 | 94 ft | 8 kts | 183° |
| 2026-05-06 11:07 | 51.46146 | -0.47302 | 94 ft | 4 kts | 227° |
| 2026-05-06 11:07 | 51.46127 | -0.47341 | 95 ft | 5 kts | 232° |
| 2026-05-06 11:07 | 51.46111 | -0.47374 | 93 ft | 1 kts | 233° |
| 2026-05-06 11:07 | 51.46107 | -0.47383 | 93 ft | 0 kts | 233° |
| 2026-05-06 11:08 | 51.46106 | -0.47385 | 91 ft | 0 kts | 233° |